sensor_id;sensor_type;location;lat;lon;timestamp;pressure;altitude;pressure_sealevel;temperature;humidity
54262;BME280;40174;52.364;6.452;2023-08-24T00:01:52;101648.78;;;16.77;100.00
54262;BME280;40174;52.364;6.452;2023-08-24T00:04:18;101663.00;;;16.77;100.00
54262;BME280;40174;52.364;6.452;2023-08-24T00:06:45;101661.47;;;16.75;100.00
54262;BME280;40174;52.364;6.452;2023-08-24T00:09:13;101659.47;;;16.77;100.00
54262;BME280;40174;52.364;6.452;2023-08-24T00:11:40;101671.56;;;16.81;100.00
54262;BME280;40174;52.364;6.452;2023-08-24T00:14:07;101667.34;;;16.78;100.00
54262;BME280;40174;52.364;6.452;2023-08-24T00:16:34;101662.00;;;16.78;100.00
54262;BME280;40174;52.364;6.452;2023-08-24T00:19:00;101660.47;;;16.76;100.00
54262;BME280;40174;52.364;6.452;2023-08-24T00:21:27;101662.56;;;16.72;100.00
54262;BME280;40174;52.364;6.452;2023-08-24T00:23:54;101656.94;;;16.66;100.00
54262;BME280;40174;52.364;6.452;2023-08-24T00:26:22;101650.91;;;16.63;100.00
54262;BME280;40174;52.364;6.452;2023-08-24T00:28:51;101638.88;;;16.59;100.00
54262;BME280;40174;52.364;6.452;2023-08-24T00:31:19;101649.53;;;16.59;100.00
54262;BME280;40174;52.364;6.452;2023-08-24T00:33:47;101642.38;;;16.60;100.00
54262;BME280;40174;52.364;6.452;2023-08-24T00:36:16;101643.34;;;16.59;100.00
54262;BME280;40174;52.364;6.452;2023-08-24T00:38:43;101641.66;;;16.58;100.00
54262;BME280;40174;52.364;6.452;2023-08-24T00:41:13;101617.38;;;16.51;100.00
54262;BME280;40174;52.364;6.452;2023-08-24T00:43:43;101612.34;;;16.48;100.00
54262;BME280;40174;52.364;6.452;2023-08-24T00:46:10;101622.16;;;16.48;100.00
54262;BME280;40174;52.364;6.452;2023-08-24T00:48:37;101625.38;;;16.51;100.00
54262;BME280;40174;52.364;6.452;2023-08-24T00:51:04;101617.94;;;16.45;100.00
54262;BME280;40174;52.364;6.452;2023-08-24T00:53:31;101623.84;;;16.49;100.00
54262;BME280;40174;52.364;6.452;2023-08-24T00:55:59;101626.94;;;16.44;100.00
54262;BME280;40174;52.364;6.452;2023-08-24T00:58:27;101633.41;;;16.41;100.00
54262;BME280;40174;52.364;6.452;2023-08-24T01:00:56;101632.53;;;16.41;100.00
54262;BME280;40174;52.364;6.452;2023-08-24T01:03:24;101638.75;;;16.41;100.00
54262;BME280;40174;52.364;6.452;2023-08-24T01:05:51;101632.72;;;16.39;100.00
54262;BME280;40174;52.364;6.452;2023-08-24T01:08:18;101619.50;;;16.38;100.00
54262;BME280;40174;52.364;6.452;2023-08-24T01:10:58;101620.59;;;16.45;100.00
54262;BME280;40174;52.364;6.452;2023-08-24T01:13:30;101587.47;;;16.38;100.00
54262;BME280;40174;52.364;6.452;2023-08-24T01:16:04;101574.97;;;16.38;100.00
54262;BME280;40174;52.364;6.452;2023-08-24T01:18:34;101599.25;;;16.55;100.00
54262;BME280;40174;52.364;6.452;2023-08-24T01:21:02;101586.91;;;16.54;100.00
54262;BME280;40174;52.364;6.452;2023-08-24T01:23:37;101601.38;;;16.51;100.00
54262;BME280;40174;52.364;6.452;2023-08-24T01:26:12;101601.22;;;16.53;100.00
54262;BME280;40174;52.364;6.452;2023-08-24T01:28:39;101606.41;;;16.54;100.00
54262;BME280;40174;52.364;6.452;2023-08-24T01:31:06;101604.31;;;16.58;100.00
54262;BME280;40174;52.364;6.452;2023-08-24T01:33:34;101609.06;;;16.64;100.00
54262;BME280;40174;52.364;6.452;2023-08-24T01:36:01;101588.44;;;16.56;100.00
54262;BME280;40174;52.364;6.452;2023-08-24T01:38:28;101591.78;;;16.58;100.00
54262;BME280;40174;52.364;6.452;2023-08-24T01:41:09;101589.00;;;16.60;100.00
54262;BME280;40174;52.364;6.452;2023-08-24T01:43:39;101586.16;;;16.71;100.00
54262;BME280;40174;52.364;6.452;2023-08-24T01:46:07;101580.69;;;16.73;100.00
54262;BME280;40174;52.364;6.452;2023-08-24T01:48:35;101591.91;;;16.86;100.00
54262;BME280;40174;52.364;6.452;2023-08-24T01:51:03;101596.25;;;16.87;100.00
54262;BME280;40174;52.364;6.452;2023-08-24T01:53:31;101588.94;;;16.89;100.00
54262;BME280;40174;52.364;6.452;2023-08-24T01:55:58;101579.66;;;16.93;100.00
54262;BME280;40174;52.364;6.452;2023-08-24T01:58:24;101561.78;;;16.94;100.00
54262;BME280;40174;52.364;6.452;2023-08-24T02:00:53;101559.69;;;16.97;100.00
54262;BME280;40174;52.364;6.452;2023-08-24T02:03:19;101565.69;;;16.99;100.00
54262;BME280;40174;52.364;6.452;2023-08-24T02:05:46;101575.41;;;17.00;100.00
54262;BME280;40174;52.364;6.452;2023-08-24T02:08:13;101574.41;;;17.01;100.00
54262;BME280;40174;52.364;6.452;2023-08-24T02:10:40;101567.72;;;16.88;100.00
54262;BME280;40174;52.364;6.452;2023-08-24T02:13:06;101570.81;;;16.93;100.00
54262;BME280;40174;52.364;6.452;2023-08-24T02:15:33;101585.00;;;16.93;100.00
54262;BME280;40174;52.364;6.452;2023-08-24T02:18:02;101587.94;;;16.90;100.00
54262;BME280;40174;52.364;6.452;2023-08-24T02:20:30;101587.41;;;16.87;100.00
54262;BME280;40174;52.364;6.452;2023-08-24T02:23:00;101592.06;;;16.85;100.00
54262;BME280;40174;52.364;6.452;2023-08-24T02:25:27;101581.38;;;16.85;100.00
54262;BME280;40174;52.364;6.452;2023-08-24T02:27:54;101584.75;;;16.87;100.00
54262;BME280;40174;52.364;6.452;2023-08-24T02:30:21;101588.09;;;16.89;100.00
54262;BME280;40174;52.364;6.452;2023-08-24T02:32:49;101591.31;;;16.92;100.00
54262;BME280;40174;52.364;6.452;2023-08-24T02:35:17;101597.50;;;16.93;100.00
54262;BME280;40174;52.364;6.452;2023-08-24T02:37:44;101594.72;;;16.85;100.00
54262;BME280;40174;52.364;6.452;2023-08-24T02:40:11;101604.97;;;16.89;100.00
54262;BME280;40174;52.364;6.452;2023-08-24T02:42:38;101596.25;;;16.87;100.00
54262;BME280;40174;52.364;6.452;2023-08-24T02:45:05;101598.78;;;16.89;100.00
54262;BME280;40174;52.364;6.452;2023-08-24T02:47:32;101598.78;;;16.89;100.00
54262;BME280;40174;52.364;6.452;2023-08-24T02:49:59;101602.16;;;16.91;100.00
54262;BME280;40174;52.364;6.452;2023-08-24T02:52:27;101569.41;;;16.79;100.00
54262;BME280;40174;52.364;6.452;2023-08-24T02:54:54;101578.00;;;16.82;100.00
54262;BME280;40174;52.364;6.452;2023-08-24T02:57:25;101580.94;;;16.89;100.00
54262;BME280;40174;52.364;6.452;2023-08-24T02:59:51;101591.44;;;17.00;100.00
54262;BME280;40174;52.364;6.452;2023-08-24T03:02:18;101575.97;;;16.94;100.00
54262;BME280;40174;52.364;6.452;2023-08-24T03:04:45;101569.38;;;16.98;100.00
54262;BME280;40174;52.364;6.452;2023-08-24T03:07:12;101538.06;;;16.91;100.00
54262;BME280;40174;52.364;6.452;2023-08-24T03:09:40;101549.41;;;17.02;100.00
54262;BME280;40174;52.364;6.452;2023-08-24T03:12:07;101547.56;;;17.03;100.00
54262;BME280;40174;52.364;6.452;2023-08-24T03:14:34;101533.00;;;16.97;100.00
54262;BME280;40174;52.364;6.452;2023-08-24T03:17:01;101520.22;;;16.91;100.00
54262;BME280;40174;52.364;6.452;2023-08-24T03:19:30;101507.84;;;16.90;100.00
54262;BME280;40174;52.364;6.452;2023-08-24T03:21:56;101507.56;;;16.93;100.00
54262;BME280;40174;52.364;6.452;2023-08-24T03:24:26;101510.06;;;16.95;100.00
54262;BME280;40174;52.364;6.452;2023-08-24T03:26:54;101516.97;;;16.97;100.00
54262;BME280;40174;52.364;6.452;2023-08-24T03:29:21;101525.41;;;16.93;100.00
54262;BME280;40174;52.364;6.452;2023-08-24T03:31:47;101521.88;;;16.92;100.00
54262;BME280;40174;52.364;6.452;2023-08-24T03:34:14;101534.25;;;16.93;100.00
54262;BME280;40174;52.364;6.452;2023-08-24T03:36:42;101532.19;;;16.87;100.00
54262;BME280;40174;52.364;6.452;2023-08-24T03:39:08;101530.19;;;16.89;100.00
54262;BME280;40174;52.364;6.452;2023-08-24T03:41:37;101529.19;;;16.90;100.00
54262;BME280;40174;52.364;6.452;2023-08-24T03:44:05;101520.81;;;16.85;100.00
54262;BME280;40174;52.364;6.452;2023-08-24T03:46:35;101530.06;;;16.91;100.00
54262;BME280;40174;52.364;6.452;2023-08-24T03:49:01;101526.41;;;16.92;100.00
54262;BME280;40174;52.364;6.452;2023-08-24T03:51:28;101513.63;;;16.86;100.00
54262;BME280;40174;52.364;6.452;2023-08-24T03:53:56;101523.84;;;16.90;100.00
54262;BME280;40174;52.364;6.452;2023-08-24T03:56:23;101523.84;;;16.90;100.00
54262;BME280;40174;52.364;6.452;2023-08-24T03:58:49;101524.31;;;16.86;100.00
54262;BME280;40174;52.364;6.452;2023-08-24T04:01:18;101532.72;;;16.91;100.00
54262;BME280;40174;52.364;6.452;2023-08-24T04:03:44;101525.59;;;16.81;100.00
54262;BME280;40174;52.364;6.452;2023-08-24T04:06:11;101501.13;;;16.76;100.00
54262;BME280;40174;52.364;6.452;2023-08-24T04:08:38;101502.94;;;16.86;100.00
54262;BME280;40174;52.364;6.452;2023-08-24T04:11:04;101489.22;;;16.80;100.00
54262;BME280;40174;52.364;6.452;2023-08-24T04:13:31;101481.63;;;16.76;100.00
54262;BME280;40174;52.364;6.452;2023-08-24T04:15:58;101495.09;;;16.74;100.00
54262;BME280;40174;52.364;6.452;2023-08-24T04:18:26;101496.78;;;16.75;100.00
54262;BME280;40174;52.364;6.452;2023-08-24T04:20:53;101490.50;;;16.67;100.00
54262;BME280;40174;52.364;6.452;2023-08-24T04:23:24;101490.25;;;16.60;100.00
54262;BME280;40174;52.364;6.452;2023-08-24T04:25:51;101486.63;;;16.51;100.00
54262;BME280;40174;52.364;6.452;2023-08-24T04:28:17;101477.34;;;16.55;100.00
54262;BME280;40174;52.364;6.452;2023-08-24T04:30:49;101482.97;;;16.52;100.00
54262;BME280;40174;52.364;6.452;2023-08-24T04:33:16;101496.16;;;16.54;100.00
54262;BME280;40174;52.364;6.452;2023-08-24T04:35:45;101490.56;;;16.47;100.00
54262;BME280;40174;52.364;6.452;2023-08-24T04:38:12;101487.78;;;16.49;100.00
54262;BME280;40174;52.364;6.452;2023-08-24T04:40:49;101496.47;;;16.51;100.00
54262;BME280;40174;52.364;6.452;2023-08-24T04:43:17;101501.66;;;16.52;100.00
54262;BME280;40174;52.364;6.452;2023-08-24T04:45:46;101501.25;;;16.47;100.00
54262;BME280;40174;52.364;6.452;2023-08-24T04:48:13;101503.22;;;16.45;100.00
54262;BME280;40174;52.364;6.452;2023-08-24T04:50:42;101507.31;;;16.39;100.00
54262;BME280;40174;52.364;6.452;2023-08-24T04:53:12;101508.03;;;16.41;100.00
54262;BME280;40174;52.364;6.452;2023-08-24T04:55:41;101508.72;;;16.44;100.00
54262;BME280;40174;52.364;6.452;2023-08-24T04:58:09;101505.88;;;16.45;100.00
54262;BME280;40174;52.364;6.452;2023-08-24T05:00:37;101498.03;;;16.44;100.00
54262;BME280;40174;52.364;6.452;2023-08-24T05:03:04;101484.00;;;16.41;100.00
54262;BME280;40174;52.364;6.452;2023-08-24T05:05:32;101496.91;;;16.36;100.00
54262;BME280;40174;52.364;6.452;2023-08-24T05:08:00;101494.41;;;16.35;100.00
54262;BME280;40174;52.364;6.452;2023-08-24T05:10:31;101490.06;;;16.34;100.00
54262;BME280;40174;52.364;6.452;2023-08-24T05:12:59;101487.13;;;16.37;100.00
54262;BME280;40174;52.364;6.452;2023-08-24T05:15:26;101483.06;;;16.33;100.00
54262;BME280;40174;52.364;6.452;2023-08-24T05:17:53;101488.38;;;16.33;100.00
54262;BME280;40174;52.364;6.452;2023-08-24T05:20:22;101497.09;;;16.35;100.00
54262;BME280;40174;52.364;6.452;2023-08-24T05:22:49;101487.69;;;16.31;100.00
54262;BME280;40174;52.364;6.452;2023-08-24T05:25:15;101488.38;;;16.33;100.00
54262;BME280;40174;52.364;6.452;2023-08-24T05:27:45;101493.41;;;16.36;100.00
54262;BME280;40174;52.364;6.452;2023-08-24T05:30:12;101491.75;;;16.35;100.00
54262;BME280;40174;52.364;6.452;2023-08-24T05:32:39;101479.38;;;16.34;100.00
54262;BME280;40174;52.364;6.452;2023-08-24T05:35:07;101469.53;;;16.34;100.00
54262;BME280;40174;52.364;6.452;2023-08-24T05:37:34;101487.81;;;16.39;100.00
54262;BME280;40174;52.364;6.452;2023-08-24T05:40:02;101480.47;;;16.41;100.00
54262;BME280;40174;52.364;6.452;2023-08-24T05:42:30;101474.47;;;16.39;100.00
54262;BME280;40174;52.364;6.452;2023-08-24T05:44:58;101486.38;;;16.45;100.00
54262;BME280;40174;52.364;6.452;2023-08-24T05:47:25;101475.00;;;16.42;100.00
54262;BME280;40174;52.364;6.452;2023-08-24T05:49:52;101472.91;;;16.46;100.00
54262;BME280;40174;52.364;6.452;2023-08-24T05:52:18;101478.22;;;16.46;100.00
54262;BME280;40174;52.364;6.452;2023-08-24T05:54:45;101466.69;;;16.46;100.00
54262;BME280;40174;52.364;6.452;2023-08-24T05:57:14;101481.16;;;16.53;100.00
54262;BME280;40174;52.364;6.452;2023-08-24T05:59:41;101476.66;;;16.53;100.00
54262;BME280;40174;52.364;6.452;2023-08-24T06:02:12;101473.41;;;16.59;100.00
54262;BME280;40174;52.364;6.452;2023-08-24T06:04:38;101473.09;;;16.62;100.00
54262;BME280;40174;52.364;6.452;2023-08-24T06:07:05;101461.97;;;16.67;100.00
54262;BME280;40174;52.364;6.452;2023-08-24T06:09:32;101446.81;;;16.68;100.00
54262;BME280;40174;52.364;6.452;2023-08-24T06:12:00;101451.00;;;16.70;100.00
54262;BME280;40174;52.364;6.452;2023-08-24T06:14:26;101446.09;;;16.75;100.00
54262;BME280;40174;52.364;6.452;2023-08-24T06:16:53;101448.34;;;16.80;100.00
54262;BME280;40174;52.364;6.452;2023-08-24T06:19:21;101437.34;;;16.83;100.00
54262;BME280;40174;52.364;6.452;2023-08-24T06:21:48;101439.56;;;16.88;100.00
54262;BME280;40174;52.364;6.452;2023-08-24T06:24:15;101431.09;;;16.92;100.00
54262;BME280;40174;52.364;6.452;2023-08-24T06:26:42;101432.19;;;16.99;100.00
54262;BME280;40174;52.364;6.452;2023-08-24T06:29:08;101431.44;;;17.07;100.00
54262;BME280;40174;52.364;6.452;2023-08-24T06:31:35;101422.66;;;17.15;100.00
54262;BME280;40174;52.364;6.452;2023-08-24T06:34:02;101425.75;;;17.20;100.00
54262;BME280;40174;52.364;6.452;2023-08-24T06:36:33;101421.16;;;17.30;100.00
54262;BME280;40174;52.364;6.452;2023-08-24T06:38:59;101421.22;;;17.38;100.00
54262;BME280;40174;52.364;6.452;2023-08-24T06:41:28;101393.22;;;17.24;100.00
54262;BME280;40174;52.364;6.452;2023-08-24T06:43:55;101411.59;;;17.45;100.00
54262;BME280;40174;52.364;6.452;2023-08-24T06:46:24;101406.94;;;17.48;100.00
54262;BME280;40174;52.364;6.452;2023-08-24T06:48:51;101406.47;;;17.52;100.00
54262;BME280;40174;52.364;6.452;2023-08-24T06:51:17;101395.66;;;17.54;100.00
54262;BME280;40174;52.364;6.452;2023-08-24T06:53:45;101396.16;;;17.57;100.00
54262;BME280;40174;52.364;6.452;2023-08-24T06:56:14;101393.88;;;17.62;100.00
54262;BME280;40174;52.364;6.452;2023-08-24T06:58:41;101376.47;;;17.58;100.00
54262;BME280;40174;52.364;6.452;2023-08-24T07:01:08;101384.06;;;17.71;100.00
54262;BME280;40174;52.364;6.452;2023-08-24T07:03:36;101390.63;;;17.77;100.00
54262;BME280;40174;52.364;6.452;2023-08-24T07:06:05;101381.19;;;17.82;100.00
54262;BME280;40174;52.364;6.452;2023-08-24T07:08:32;101375.50;;;17.85;100.00
54262;BME280;40174;52.364;6.452;2023-08-24T07:11:00;101376.56;;;17.93;100.00
54262;BME280;40174;52.364;6.452;2023-08-24T07:13:27;101368.06;;;17.97;100.00
54262;BME280;40174;52.364;6.452;2023-08-24T07:15:54;101367.91;;;17.99;100.00
54262;BME280;40174;52.364;6.452;2023-08-24T07:18:22;101369.09;;;18.04;100.00
54262;BME280;40174;52.364;6.452;2023-08-24T07:20:49;101371.34;;;18.17;100.00
54262;BME280;40174;52.364;6.452;2023-08-24T07:23:15;101367.84;;;18.25;100.00
54262;BME280;40174;52.364;6.452;2023-08-24T07:25:42;101354.97;;;18.20;100.00
54262;BME280;40174;52.364;6.452;2023-08-24T07:28:10;101359.09;;;18.41;100.00
54262;BME280;40174;52.364;6.452;2023-08-24T07:30:37;101369.31;;;18.54;100.00
54262;BME280;40174;52.364;6.452;2023-08-24T07:33:04;101358.16;;;18.66;100.00
54262;BME280;40174;52.364;6.452;2023-08-24T07:35:31;101356.38;;;18.83;100.00
54262;BME280;40174;52.364;6.452;2023-08-24T07:37:58;101360.56;;;18.94;100.00
54262;BME280;40174;52.364;6.452;2023-08-24T07:40:25;101358.41;;;18.98;100.00
54262;BME280;40174;52.364;6.452;2023-08-24T07:42:53;101361.91;;;19.15;100.00
54262;BME280;40174;52.364;6.452;2023-08-24T07:45:23;101368.97;;;19.32;100.00
54262;BME280;40174;52.364;6.452;2023-08-24T07:47:50;101369.16;;;19.47;100.00
54262;BME280;40174;52.364;6.452;2023-08-24T07:50:17;101369.28;;;19.62;100.00
54262;BME280;40174;52.364;6.452;2023-08-24T07:52:44;101352.91;;;19.73;100.00
54262;BME280;40174;52.364;6.452;2023-08-24T07:55:11;101354.00;;;19.95;100.00
54262;BME280;40174;52.364;6.452;2023-08-24T07:57:38;101351.59;;;20.08;100.00
54262;BME280;40174;52.364;6.452;2023-08-24T08:00:05;101360.44;;;20.25;100.00
54262;BME280;40174;52.364;6.452;2023-08-24T08:02:41;101374.81;;;20.41;100.00
54262;BME280;40174;52.364;6.452;2023-08-24T08:05:08;101373.06;;;20.56;100.00
54262;BME280;40174;52.364;6.452;2023-08-24T08:07:36;101364.00;;;20.65;100.00
54262;BME280;40174;52.364;6.452;2023-08-24T08:10:08;101365.53;;;20.83;100.00
54262;BME280;40174;52.364;6.452;2023-08-24T08:12:37;101368.31;;;20.97;100.00
54262;BME280;40174;52.364;6.452;2023-08-24T08:15:05;101380.25;;;21.18;100.00
54262;BME280;40174;52.364;6.452;2023-08-24T08:17:32;101382.72;;;21.28;100.00
54262;BME280;40174;52.364;6.452;2023-08-24T08:20:10;101373.72;;;21.35;100.00
54262;BME280;40174;52.364;6.452;2023-08-24T08:22:38;101386.44;;;21.65;100.00
54262;BME280;40174;52.364;6.452;2023-08-24T08:25:05;101370.78;;;21.68;100.00
54262;BME280;40174;52.364;6.452;2023-08-24T08:27:32;101366.72;;;21.87;100.00
54262;BME280;40174;52.364;6.452;2023-08-24T08:29:59;101357.81;;;22.01;100.00
54262;BME280;40174;52.364;6.452;2023-08-24T08:32:26;101361.09;;;22.27;100.00
54262;BME280;40174;52.364;6.452;2023-08-24T08:34:53;101354.00;;;22.40;100.00
54262;BME280;40174;52.364;6.452;2023-08-24T08:37:26;101353.53;;;22.52;100.00
54262;BME280;40174;52.364;6.452;2023-08-24T08:39:52;101369.63;;;22.67;100.00
54262;BME280;40174;52.364;6.452;2023-08-24T08:42:19;101329.16;;;22.60;100.00
54262;BME280;40174;52.364;6.452;2023-08-24T08:44:46;101358.97;;;22.95;100.00
54262;BME280;40174;52.364;6.452;2023-08-24T08:47:13;101358.34;;;23.14;100.00
54262;BME280;40174;52.364;6.452;2023-08-24T08:49:42;101350.56;;;23.26;100.00
54262;BME280;40174;52.364;6.452;2023-08-24T08:52:12;101326.13;;;23.28;100.00
54262;BME280;40174;52.364;6.452;2023-08-24T08:54:41;101329.56;;;23.43;100.00
54262;BME280;40174;52.364;6.452;2023-08-24T08:57:08;101335.25;;;23.55;100.00
54262;BME280;40174;52.364;6.452;2023-08-24T08:59:36;101314.56;;;23.40;100.00
54262;BME280;40174;52.364;6.452;2023-08-24T09:02:04;101341.75;;;23.67;100.00
54262;BME280;40174;52.364;6.452;2023-08-24T09:04:33;101328.78;;;23.77;100.00
54262;BME280;40174;52.364;6.452;2023-08-24T09:07:00;101335.72;;;23.93;100.00
54262;BME280;40174;52.364;6.452;2023-08-24T09:09:30;101327.47;;;24.01;100.00
54262;BME280;40174;52.364;6.452;2023-08-24T09:12:01;101330.19;;;24.15;100.00
54262;BME280;40174;52.364;6.452;2023-08-24T09:14:28;101310.56;;;24.34;100.00
54262;BME280;40174;52.364;6.452;2023-08-24T09:16:55;101294.81;;;24.44;100.00
54262;BME280;40174;52.364;6.452;2023-08-24T09:19:27;101313.38;;;24.67;99.51
54262;BME280;40174;52.364;6.452;2023-08-24T09:21:56;101314.19;;;24.61;94.29
54262;BME280;40174;52.364;6.452;2023-08-24T09:24:29;101311.53;;;24.81;99.02
54262;BME280;40174;52.364;6.452;2023-08-24T09:26:58;101298.22;;;24.86;96.88
54262;BME280;40174;52.364;6.452;2023-08-24T09:29:25;101318.41;;;25.10;94.27
54262;BME280;40174;52.364;6.452;2023-08-24T09:31:52;101320.50;;;25.15;93.25
54262;BME280;40174;52.364;6.452;2023-08-24T09:34:20;101311.34;;;25.16;89.92
54262;BME280;40174;52.364;6.452;2023-08-24T09:36:47;101298.25;;;25.40;92.34
54262;BME280;40174;52.364;6.452;2023-08-24T09:39:16;101300.31;;;25.58;89.06
54262;BME280;40174;52.364;6.452;2023-08-24T09:41:45;101292.81;;;25.60;86.47
54262;BME280;40174;52.364;6.452;2023-08-24T09:44:14;101266.75;;;25.79;88.74
54262;BME280;40174;52.364;6.452;2023-08-24T09:46:45;101262.53;;;25.96;86.79
54262;BME280;40174;52.364;6.452;2023-08-24T09:49:21;101254.03;;;25.92;80.52
54262;BME280;40174;52.364;6.452;2023-08-24T09:51:48;101251.72;;;25.83;81.78
54262;BME280;40174;52.364;6.452;2023-08-24T09:54:19;101236.09;;;25.85;81.82
54262;BME280;40174;52.364;6.452;2023-08-24T09:56:48;101247.16;;;25.90;81.64
54262;BME280;40174;52.364;6.452;2023-08-24T09:59:18;101244.94;;;26.12;81.24
54262;BME280;40174;52.364;6.452;2023-08-24T10:01:51;101242.59;;;26.29;77.29
54262;BME280;40174;52.364;6.452;2023-08-24T10:04:22;101232.38;;;26.63;79.99
54262;BME280;40174;52.364;6.452;2023-08-24T10:06:51;101241.53;;;26.93;78.02
54262;BME280;40174;52.364;6.452;2023-08-24T10:09:22;101244.66;;;27.22;76.18
54262;BME280;40174;52.364;6.452;2023-08-24T10:11:56;101242.09;;;27.27;71.27
54262;BME280;40174;52.364;6.452;2023-08-24T10:14:31;101220.84;;;27.43;72.71
54262;BME280;40174;52.364;6.452;2023-08-24T10:16:59;101212.69;;;27.61;70.08
54262;BME280;40174;52.364;6.452;2023-08-24T10:19:27;101214.34;;;27.81;69.39
54262;BME280;40174;52.364;6.452;2023-08-24T10:21:59;101221.63;;;27.80;67.84
54262;BME280;40174;52.364;6.452;2023-08-24T10:24:27;101215.94;;;27.88;66.93
54262;BME280;40174;52.364;6.452;2023-08-24T10:26:55;101221.63;;;27.80;66.39
54262;BME280;40174;52.364;6.452;2023-08-24T10:29:23;101233.75;;;27.84;68.46
54262;BME280;40174;52.364;6.452;2023-08-24T10:31:53;101232.97;;;27.95;67.18
54262;BME280;40174;52.364;6.452;2023-08-24T10:34:21;101236.75;;;27.94;68.35
54262;BME280;40174;52.364;6.452;2023-08-24T10:36:48;101217.78;;;28.06;65.71
54262;BME280;40174;52.364;6.452;2023-08-24T10:39:15;101215.97;;;28.18;67.84
54262;BME280;40174;52.364;6.452;2023-08-24T10:41:49;101205.72;;;28.32;65.44
54262;BME280;40174;52.364;6.452;2023-08-24T10:44:20;101197.09;;;28.35;66.87
54262;BME280;40174;52.364;6.452;2023-08-24T10:47:11;101193.53;;;28.23;66.56
54262;BME280;40174;52.364;6.452;2023-08-24T10:49:57;101185.69;;;28.15;65.29
54262;BME280;40174;52.364;6.452;2023-08-24T10:52:29;101185.69;;;28.15;65.62
54262;BME280;40174;52.364;6.452;2023-08-24T10:54:56;101180.22;;;28.03;65.95
54262;BME280;40174;52.364;6.452;2023-08-24T10:57:31;101177.16;;;28.11;65.34
54262;BME280;40174;52.364;6.452;2023-08-24T11:00:07;101167.75;;;28.14;67.03
54262;BME280;40174;52.364;6.452;2023-08-24T11:02:43;101148.53;;;28.39;65.26
54262;BME280;40174;52.364;6.452;2023-08-24T11:05:18;101162.66;;;28.48;66.47
54262;BME280;40174;52.364;6.452;2023-08-24T11:07:53;101147.53;;;28.64;66.11
54262;BME280;40174;52.364;6.452;2023-08-24T11:10:20;101153.66;;;28.94;65.27
54262;BME280;40174;52.364;6.452;2023-08-24T11:13:13;101163.09;;;29.03;64.55
54262;BME280;40174;52.364;6.452;2023-08-24T11:15:42;101148.00;;;28.84;63.64
54262;BME280;40174;52.364;6.452;2023-08-24T11:18:25;101133.78;;;28.58;63.23
54262;BME280;40174;52.364;6.452;2023-08-24T11:20:54;101160.28;;;28.63;62.73
54262;BME280;40174;52.364;6.452;2023-08-24T11:23:22;101131.56;;;28.55;66.61
54262;BME280;40174;52.364;6.452;2023-08-24T11:25:51;101162.44;;;28.61;66.19
54262;BME280;40174;52.364;6.452;2023-08-24T11:28:20;101160.34;;;28.45;65.64
54262;BME280;40174;52.364;6.452;2023-08-24T11:30:48;101161.34;;;28.20;66.58
54262;BME280;40174;52.364;6.452;2023-08-24T11:33:16;101167.16;;;28.12;66.15
54262;BME280;40174;52.364;6.452;2023-08-24T11:35:46;101165.88;;;28.26;67.59
54262;BME280;40174;52.364;6.452;2023-08-24T11:38:13;101164.34;;;28.30;67.33
54262;BME280;40174;52.364;6.452;2023-08-24T11:40:39;101166.50;;;28.40;68.16
54262;BME280;40174;52.364;6.452;2023-08-24T11:43:06;101180.88;;;28.59;67.53
54262;BME280;40174;52.364;6.452;2023-08-24T11:45:34;101178.75;;;28.61;67.80
54262;BME280;40174;52.364;6.452;2023-08-24T11:48:03;101167.00;;;28.49;65.75
54262;BME280;40174;52.364;6.452;2023-08-24T11:50:30;101170.50;;;28.37;64.39
54262;BME280;40174;52.364;6.452;2023-08-24T11:52:59;101158.78;;;28.25;66.76
54262;BME280;40174;52.364;6.452;2023-08-24T11:55:28;101159.50;;;28.32;66.06
54262;BME280;40174;52.364;6.452;2023-08-24T11:57:56;101151.66;;;28.12;64.07
54262;BME280;40174;52.364;6.452;2023-08-24T12:00:29;101158.31;;;28.16;67.42
54262;BME280;40174;52.364;6.452;2023-08-24T12:03:02;101169.19;;;28.28;67.12
54262;BME280;40174;52.364;6.452;2023-08-24T12:05:29;101171.88;;;28.16;65.95
54262;BME280;40174;52.364;6.452;2023-08-24T12:07:56;101150.34;;;28.03;65.94
54262;BME280;40174;52.364;6.452;2023-08-24T12:10:27;101123.81;;;28.29;67.59
54262;BME280;40174;52.364;6.452;2023-08-24T12:13:02;101135.88;;;28.21;66.87
54262;BME280;40174;52.364;6.452;2023-08-24T12:15:34;101136.78;;;28.15;66.88
54262;BME280;40174;52.364;6.452;2023-08-24T12:18:07;101108.88;;;27.96;66.47
54262;BME280;40174;52.364;6.452;2023-08-24T12:20:34;101121.09;;;27.87;67.00
54262;BME280;40174;52.364;6.452;2023-08-24T12:23:02;101103.69;;;27.76;65.74
54262;BME280;40174;52.364;6.452;2023-08-24T12:25:36;101082.25;;;27.56;67.95
54262;BME280;40174;52.364;6.452;2023-08-24T12:28:10;101090.84;;;27.83;68.40
54262;BME280;40174;52.364;6.452;2023-08-24T12:30:44;101072.97;;;27.94;69.20
54262;BME280;40174;52.364;6.452;2023-08-24T12:33:21;101074.03;;;28.05;69.50
54262;BME280;40174;52.364;6.452;2023-08-24T12:35:49;101093.41;;;27.96;67.19
54262;BME280;40174;52.364;6.452;2023-08-24T12:38:17;101071.94;;;27.76;68.87
54262;BME280;40174;52.364;6.452;2023-08-24T12:40:45;101083.34;;;27.85;70.61
54262;BME280;40174;52.364;6.452;2023-08-24T12:43:23;101071.13;;;27.76;69.01
54262;BME280;40174;52.364;6.452;2023-08-24T12:45:50;101058.91;;;27.67;70.82
54262;BME280;40174;52.364;6.452;2023-08-24T12:48:19;101068.94;;;27.66;70.66
54262;BME280;40174;52.364;6.452;2023-08-24T12:50:46;101054.44;;;27.72;71.44